Time;durP1;ratioP1;P1;durP2;ratioP2;P2;SDS_P1;SDS_P2;PMS_P1;PMS_P2;Temp;Humidity;BMP_temperature;BMP_pressure;BME280_temperature;BME280_humidity;BME280_pressure;Samples;Min_cycle;Max_cycle;Signal;HPM_P1;HPM_P2
2023/06/09 06:54:03;;;;;;;5.07;1.20;;;18.10;49.20;;;;;;4968677;28;20221;-68
2023/06/09 06:56:31;;;;;;;1.80;1.00;;;18.00;49.50;;;;;;4966984;28;20221;-72
2023/06/09 06:58:58;;;;;;;3.03;1.10;;;18.00;50.10;;;;;;4965796;28;20190;-68
2023/06/09 07:01:25;;;;;;;5.50;1.27;;;17.90;50.40;;;;;;4969321;28;20649;-71
2023/06/09 07:03:53;;;;;;;3.10;1.20;;;17.80;50.50;;;;;;4971598;28;20182;-71
2023/06/09 07:06:20;;;;;;;2.77;1.20;;;17.80;51.10;;;;;;4978380;28;20310;-70
2023/06/09 07:08:48;;;;;;;4.23;1.70;;;17.80;51.10;;;;;;4970807;28;20585;-70
2023/06/09 07:11:16;;;;;;;5.57;1.33;;;17.60;51.50;;;;;;4972772;28;20187;-72
2023/06/09 07:13:43;;;;;;;5.03;1.40;;;17.60;51.80;;;;;;4971658;28;20186;-69
2023/06/09 07:16:10;;;;;;;3.70;1.40;;;17.50;52.10;;;;;;4971065;28;20214;-66
2023/06/09 07:18:37;;;;;;;6.87;1.30;;;17.40;52.50;;;;;;4972616;28;20197;-70
2023/06/09 07:21:05;;;;;;;6.67;1.20;;;17.40;52.70;;;;;;4971917;28;20277;-72
2023/06/09 07:23:32;;;;;;;3.90;1.37;;;17.40;53.20;;;;;;4973163;28;20186;-73
2023/06/09 07:25:59;;;;;;;5.90;1.30;;;17.30;53.60;;;;;;4966981;28;20213;-68
2023/06/09 07:28:27;;;;;;;4.50;1.27;;;17.30;53.60;;;;;;4965030;28;20277;-70
2023/06/09 07:30:55;;;;;;;2.97;1.17;;;17.20;53.90;;;;;;4970336;28;20549;-70
2023/06/09 07:33:22;;;;;;;2.73;1.17;;;17.20;53.90;;;;;;4968143;28;20206;-72
2023/06/09 07:35:52;;;;;;;5.57;1.27;;;17.10;54.30;;;;;;4966974;28;20257;-72
2023/06/09 07:38:21;;;;;;;5.20;1.40;;;17.10;54.40;;;;;;4972128;28;20243;-70
2023/06/09 07:40:48;;;;;;;4.43;1.53;;;17.00;54.60;;;;;;4972352;28;20268;-73
2023/06/09 07:43:15;;;;;;;3.53;1.50;;;17.00;54.60;;;;;;4967347;28;20226;-69
2023/06/09 07:45:43;;;;;;;3.47;1.40;;;17.00;54.70;;;;;;4971354;28;20273;-67
2023/06/09 07:48:10;;;;;;;5.73;1.40;;;17.00;55.00;;;;;;4969371;28;20183;-69
2023/06/09 07:50:37;;;;;;;6.57;1.60;;;16.90;55.20;;;;;;4974143;28;20248;-68
2023/06/09 07:53:04;;;;;;;3.50;1.70;;;16.90;55.50;;;;;;4972207;28;20234;-67
2023/06/09 07:55:32;;;;;;;4.07;1.10;;;16.80;55.40;;;;;;4973509;28;20185;-67
2023/06/09 07:57:59;;;;;;;4.33;1.50;;;16.80;56.20;;;;;;4975355;28;20645;-68
2023/06/09 08:00:27;;;;;;;6.60;1.30;;;16.70;56.00;;;;;;4976493;28;20182;-67
2023/06/09 08:03:04;;;;;;;4.20;1.30;;;16.70;56.40;;;;;;4980210;28;20275;-68
2023/06/09 08:05:31;;;;;;;3.83;1.60;;;16.70;56.20;;;;;;4975438;28;20248;-68
2023/06/09 08:08:00;;;;;;;4.63;1.53;;;16.70;56.10;;;;;;4976125;28;20181;-68
2023/06/09 08:10:28;;;;;;;4.40;1.70;;;16.70;56.60;;;;;;4976228;28;20692;-68
2023/06/09 08:12:55;;;;;;;7.93;2.00;;;16.60;56.60;;;;;;4973350;28;20522;-69
2023/06/09 08:15:22;;;;;;;2.80;1.87;;;16.60;56.20;;;;;;4976416;28;20680;-68
2023/06/09 08:17:50;;;;;;;4.80;1.90;;;16.60;56.90;;;;;;4971273;28;20202;-68
2023/06/09 08:20:17;;;;;;;7.00;2.87;;;16.60;57.20;;;;;;4975136;28;20187;-69
2023/06/09 08:22:44;;;;;;;4.67;2.40;;;16.60;57.20;;;;;;4973481;28;20332;-67
2023/06/09 08:25:12;;;;;;;4.83;2.67;;;16.60;57.00;;;;;;4976007;28;20678;-67
2023/06/09 08:27:40;;;;;;;4.10;2.47;;;16.60;56.80;;;;;;4974150;28;20181;-68
2023/06/09 08:30:08;;;;;;;4.43;2.83;;;16.50;57.30;;;;;;4974837;28;20579;-68
2023/06/09 08:32:36;;;;;;;6.80;3.23;;;16.50;57.50;;;;;;4976032;28;20194;-68
2023/06/09 08:35:09;;;;;;;6.37;2.50;;;16.40;57.30;;;;;;4975421;28;20207;-68
2023/06/09 08:37:38;;;;;;;7.03;2.80;;;16.40;57.30;;;;;;4973234;28;20181;-69
2023/06/09 08:40:08;;;;;;;5.87;2.40;;;16.30;57.80;;;;;;4979796;28;20247;-67
2023/06/09 08:42:36;;;;;;;3.43;2.20;;;16.30;57.90;;;;;;4974508;28;20183;-68
2023/06/09 08:45:05;;;;;;;3.17;2.10;;;16.30;57.90;;;;;;4973007;28;20202;-68
2023/06/09 08:47:33;;;;;;;4.87;2.73;;;16.30;57.70;;;;;;4974790;28;20187;-67
2023/06/09 08:50:02;;;;;;;6.60;3.50;;;16.30;58.00;;;;;;4974308;28;20237;-68
2023/06/09 08:52:30;;;;;;;4.40;2.57;;;16.30;58.20;;;;;;4971371;28;20184;-68
2023/06/09 08:54:59;;;;;;;5.20;2.67;;;16.30;58.20;;;;;;4975239;28;20251;-68
2023/06/09 08:57:28;;;;;;;7.90;2.47;;;16.30;58.40;;;;;;4978092;28;20191;-69
2023/06/09 08:59:55;;;;;;;5.60;2.40;;;16.30;58.50;;;;;;4974609;28;20184;-67
2023/06/09 09:02:23;;;;;;;6.33;2.20;;;16.20;58.90;;;;;;4974213;28;20189;-68
2023/06/09 09:04:50;;;;;;;5.40;2.10;;;16.20;59.10;;;;;;4974481;28;20591;-67
2023/06/09 09:07:17;;;;;;;4.30;1.73;;;16.20;59.40;;;;;;4974333;28;20198;-68
2023/06/09 09:09:45;;;;;;;4.20;2.10;;;16.10;59.70;;;;;;4974811;28;20206;-68
2023/06/09 09:12:13;;;;;;;5.23;2.20;;;16.00;59.80;;;;;;4973099;28;20182;-69
2023/06/09 09:14:44;;;;;;;5.07;2.00;;;16.00;60.00;;;;;;4972736;28;20183;-69
2023/06/09 09:17:12;;;;;;;3.57;1.90;;;16.00;60.40;;;;;;4971100;28;20260;-69
2023/06/09 09:19:53;;;;;;;3.17;2.10;;;15.90;60.80;;;;;;4973077;28;20211;-68
2023/06/09 09:22:20;;;;;;;6.10;3.57;;;15.90;60.80;;;;;;4974175;28;20176;-70
2023/06/09 09:24:49;;;;;;;2.40;1.90;;;15.90;61.10;;;;;;4971099;28;20217;-69
2023/06/09 09:27:22;;;;;;;2.63;1.90;;;15.90;61.10;;;;;;4974024;28;20280;-71
2023/06/09 09:29:50;;;;;;;1.87;1.57;;;15.80;61.40;;;;;;4973006;28;20280;-68
2023/06/09 09:32:17;;;;;;;3.83;1.90;;;15.80;61.50;;;;;;4973425;28;20202;-68
2023/06/09 09:34:45;;;;;;;3.03;1.90;;;15.80;61.80;;;;;;4973602;28;20183;-71
2023/06/09 09:37:18;;;;;;;5.90;2.03;;;15.70;62.20;;;;;;4971143;28;20249;-69
2023/06/09 09:39:53;;;;;;;2.70;1.70;;;15.70;62.40;;;;;;4970547;28;20281;-66
2023/06/09 09:42:21;;;;;;;3.27;1.67;;;15.70;62.40;;;;;;4971826;28;20183;-69
2023/06/09 09:44:52;;;;;;;2.27;1.40;;;15.60;62.40;;;;;;4974339;28;20190;-69
2023/06/09 09:47:22;;;;;;;4.17;1.53;;;15.70;62.70;;;;;;4971836;28;20182;-67
2023/06/09 09:49:58;;;;;;;1.47;1.27;;;15.60;62.80;;;;;;4968312;28;20254;-70
2023/06/09 09:52:31;;;;;;;2.70;1.60;;;15.60;63.00;;;;;;4968451;28;20190;-69
2023/06/09 09:55:04;;;;;;;1.67;1.27;;;15.50;63.00;;;;;;4972216;28;20275;-67
2023/06/09 09:57:35;;;;;;;1.37;1.27;;;15.50;63.10;;;;;;4970672;28;20282;-69
2023/06/09 10:00:15;;;;;;;2.47;1.20;;;15.50;63.30;;;;;;4971734;28;20179;-69
2023/06/09 10:02:44;;;;;;;1.93;1.47;;;15.40;63.60;;;;;;4970516;28;20182;-68
2023/06/09 10:05:16;;;;;;;2.53;1.60;;;15.30;63.90;;;;;;4953948;28;20190;-71
2023/06/09 10:07:48;;;;;;;2.07;1.70;;;15.30;64.10;;;;;;4973787;28;20188;-69
2023/06/09 10:10:16;;;;;;;2.90;1.73;;;15.20;64.10;;;;;;4972448;28;20211;-71
2023/06/09 10:12:44;;;;;;;3.30;1.57;;;15.20;64.50;;;;;;4969813;28;20230;-68
2023/06/09 10:15:12;;;;;;;4.40;1.90;;;15.20;64.50;;;;;;4972106;28;20194;-73
2023/06/09 10:17:43;;;;;;;2.00;1.30;;;15.20;64.70;;;;;;4968885;28;20277;-73
2023/06/09 10:20:11;;;;;;;2.77;1.80;;;15.10;64.80;;;;;;4955280;28;20193;-72
2023/06/09 10:22:40;;;;;;;2.23;1.73;;;15.00;65.00;;;;;;4968725;28;20229;-72
2023/06/09 10:25:08;;;;;;;3.60;1.77;;;15.00;65.30;;;;;;4972400;28;20566;-71
2023/06/09 10:27:35;;;;;;;5.60;2.30;;;14.90;65.50;;;;;;4972266;28;20191;-72
2023/06/09 10:30:03;;;;;;;2.50;2.03;;;14.80;66.10;;;;;;4967982;28;20249;-72
2023/06/09 10:32:34;;;;;;;5.33;2.50;;;14.80;66.30;;;;;;4963145;28;20613;-71
2023/06/09 10:35:04;;;;;;;4.23;3.00;;;14.80;66.30;;;;;;4971346;28;20199;-70
2023/06/09 10:37:37;;;;;;;5.47;2.77;;;14.70;66.50;;;;;;4967986;28;20191;-69
2023/06/09 10:40:10;;;;;;;3.90;2.80;;;14.70;67.00;;;;;;4969665;28;20303;-71
2023/06/09 10:42:57;;;;;;;5.03;3.13;;;14.60;67.10;;;;;;4966616;28;20182;-70
2023/06/09 10:45:50;;;;;;;3.73;2.20;;;14.50;67.10;;;;;;4972175;28;20612;-70
2023/06/09 10:51:53;;;;;;;2.13;1.80;;;14.50;67.00;;;;;;3752276;28;20233;-70
2023/06/09 10:54:22;;;;;;;2.70;1.70;;;14.50;66.90;;;;;;4972785;28;20260;-66
2023/06/09 10:57:00;;;;;;;3.30;1.90;;;14.40;66.80;;;;;;4967820;28;20182;-67
2023/06/09 10:59:30;;;;;;;4.20;2.00;;;14.40;66.60;;;;;;4973067;28;20183;-72
2023/06/09 11:02:03;;;;;;;4.20;1.80;;;14.40;66.40;;;;;;4973350;28;20178;-69
2023/06/09 11:04:45;;;;;;;5.93;1.73;;;14.50;65.80;;;;;;4970812;28;20183;-69
2023/06/09 11:07:18;;;;;;;4.87;1.83;;;14.50;65.10;;;;;;4970864;28;20182;-70
2023/06/09 11:09:51;;;;;;;4.13;1.83;;;14.60;64.90;;;;;;4969208;28;20215;-71
2023/06/09 11:12:42;;;;;;;7.00;2.30;;;14.50;65.10;;;;;;4972355;28;20317;-71
2023/06/09 11:15:10;;;;;;;4.90;2.27;;;14.50;65.10;;;;;;4972328;28;20210;-71
2023/06/09 11:17:43;;;;;;;7.70;1.90;;;14.40;64.90;;;;;;4971889;28;20652;-72
2023/06/09 11:20:10;;;;;;;4.77;2.30;;;14.40;65.40;;;;;;4972814;28;20182;-70
2023/06/09 11:22:52;;;;;;;5.57;2.60;;;14.30;65.20;;;;;;4971665;28;20189;-70
2023/06/09 11:25:19;;;;;;;7.57;2.53;;;14.30;64.90;;;;;;4971781;28;20187;-71
2023/06/09 11:27:56;;;;;;;7.20;2.60;;;14.30;64.70;;;;;;4971329;28;20184;-69
2023/06/09 11:30:29;;;;;;;4.47;2.87;;;14.30;64.30;;;;;;4972531;28;20258;-70
2023/06/09 11:32:59;;;;;;;7.80;2.63;;;14.20;64.30;;;;;;4971687;28;20182;-69
2023/06/09 11:35:35;;;;;;;4.53;2.00;;;14.20;64.30;;;;;;4971640;28;20187;-72
2023/06/09 11:38:03;;;;;;;9.47;2.30;;;14.30;63.60;;;;;;4972378;28;20182;-70
2023/06/09 11:40:35;;;;;;;5.43;1.90;;;14.20;63.60;;;;;;4971853;28;20215;-70
2023/06/09 11:43:09;;;;;;;5.80;1.93;;;14.20;63.30;;;;;;4970319;28;20179;-69
2023/06/09 11:45:39;;;;;;;7.37;2.40;;;14.20;63.20;;;;;;4970042;28;20302;-71
2023/06/09 11:48:07;;;;;;;4.37;2.00;;;14.20;63.10;;;;;;4972575;28;20197;-69
2023/06/09 11:50:47;;;;;;;3.27;1.77;;;14.20;63.20;;;;;;4970950;28;20262;-70
2023/06/09 11:53:24;;;;;;;8.00;2.17;;;14.10;63.20;;;;;;4968089;28;20245;-71
2023/06/09 11:56:04;;;;;;;4.20;1.80;;;14.10;63.00;;;;;;4948207;28;20186;-69
2023/06/09 11:58:32;;;;;;;5.60;1.77;;;14.20;62.60;;;;;;4968794;28;20206;-66
2023/06/09 12:00:59;;;;;;;2.67;1.37;;;14.20;62.10;;;;;;4965600;28;20187;-69
2023/06/09 12:03:27;;;;;;;8.57;1.70;;;14.20;61.90;;;;;;4971028;28;20182;-70
2023/06/09 12:05:55;;;;;;;5.73;1.60;;;14.20;62.10;;;;;;4968713;28;20209;-70
2023/06/09 12:08:22;;;;;;;8.27;1.67;;;14.20;62.00;;;;;;4969101;28;20218;-68
2023/06/09 12:10:49;;;;;;;4.87;1.70;;;14.10;61.90;;;;;;4964642;28;20226;-67
2023/06/09 12:13:17;;;;;;;3.40;1.87;;;14.10;62.30;;;;;;4967787;28;20211;-68
2023/06/09 12:15:51;;;;;;;5.70;2.40;;;14.10;61.90;;;;;;4968518;28;20185;-67
2023/06/09 12:18:18;;;;;;;4.87;1.67;;;14.10;62.00;;;;;;4971323;28;20280;-69
2023/06/09 12:20:51;;;;;;;6.77;1.97;;;14.10;61.80;;;;;;4971589;28;20174;-67
2023/06/09 12:23:18;;;;;;;7.07;2.07;;;14.10;61.60;;;;;;4969097;28;20203;-68
2023/06/09 12:25:48;;;;;;;5.17;1.70;;;14.10;61.40;;;;;;4971068;28;20183;-69
2023/06/09 12:28:19;;;;;;;6.03;1.90;;;14.20;60.80;;;;;;4970234;28;20197;-69
2023/06/09 12:30:53;;;;;;;3.20;1.43;;;14.20;60.70;;;;;;4970334;28;20693;-67
2023/06/09 12:33:22;;;;;;;6.87;2.10;;;14.20;60.90;;;;;;4970225;28;20195;-70
2023/06/09 12:35:52;;;;;;;5.03;1.50;;;14.10;60.60;;;;;;4970415;28;20609;-70
2023/06/09 12:38:22;;;;;;;5.20;1.80;;;14.10;60.90;;;;;;4973614;28;20274;-69
2023/06/09 12:40:54;;;;;;;6.20;1.73;;;14.00;61.10;;;;;;4974563;28;20186;-69
2023/06/09 12:43:26;;;;;;;6.07;1.87;;;14.00;60.90;;;;;;4975985;28;20982;-69
2023/06/09 12:45:57;;;;;;;4.80;1.50;;;14.00;60.90;;;;;;4975996;28;20214;-68
2023/06/09 12:48:25;;;;;;;4.50;1.50;;;14.00;60.80;;;;;;4975624;28;20278;-71
2023/06/09 12:50:56;;;;;;;5.13;1.60;;;13.90;61.30;;;;;;4973051;28;20700;-70
2023/06/09 12:53:23;;;;;;;6.07;1.90;;;14.00;60.70;;;;;;4974490;28;20238;-68
2023/06/09 12:55:50;;;;;;;4.70;1.50;;;14.00;60.50;;;;;;4975603;28;20180;-68
2023/06/09 12:58:18;;;;;;;5.93;2.00;;;14.00;60.50;;;;;;4975227;28;20269;-72
2023/06/09 13:00:45;;;;;;;5.40;1.80;;;14.00;60.50;;;;;;4974816;28;20185;-70
2023/06/09 13:03:12;;;;;;;7.33;1.60;;;14.00;60.30;;;;;;4974773;28;20252;-69
2023/06/09 13:05:41;;;;;;;4.17;1.47;;;14.00;60.40;;;;;;4975700;28;20238;-71
2023/06/09 13:08:08;;;;;;;6.80;2.20;;;14.00;60.30;;;;;;4974988;28;20539;-67
2023/06/09 13:10:36;;;;;;;5.70;1.93;;;14.00;60.50;;;;;;4975863;28;20221;-67
2023/06/09 13:13:03;;;;;;;5.77;1.40;;;14.00;60.40;;;;;;4974519;28;20178;-67
2023/06/09 13:15:31;;;;;;;5.03;1.77;;;14.00;60.60;;;;;;4970442;28;20179;-67
2023/06/09 13:17:58;;;;;;;4.77;1.57;;;14.00;60.80;;;;;;4969476;28;20552;-66
2023/06/09 13:20:25;;;;;;;7.30;2.03;;;13.90;60.90;;;;;;4974772;28;20186;-66
2023/06/09 13:22:53;;;;;;;7.73;1.60;;;13.90;61.10;;;;;;4972246;28;20174;-66
2023/06/09 13:25:20;;;;;;;5.43;1.90;;;13.90;61.10;;;;;;4971036;28;20190;-69
2023/06/09 13:27:47;;;;;;;4.93;1.90;;;13.90;61.10;;;;;;4973958;28;20623;-69
2023/06/09 13:30:15;;;;;;;7.37;2.00;;;13.90;61.40;;;;;;4971434;28;20210;-68
2023/06/09 13:32:42;;;;;;;5.83;1.83;;;13.80;61.60;;;;;;4969171;28;20175;-68
2023/06/09 13:35:10;;;;;;;4.03;2.10;;;13.80;61.90;;;;;;4974851;28;20266;-71
2023/06/09 13:37:38;;;;;;;5.13;1.57;;;13.80;61.90;;;;;;4973491;28;20231;-69
2023/06/09 13:40:06;;;;;;;4.07;1.90;;;13.70;62.30;;;;;;4972113;28;20191;-69
2023/06/09 13:42:33;;;;;;;4.23;1.67;;;13.70;62.40;;;;;;4971061;28;20175;-66
2023/06/09 13:45:01;;;;;;;8.07;2.00;;;13.70;62.40;;;;;;4970867;28;20641;-65
2023/06/09 13:47:28;;;;;;;6.47;1.87;;;13.70;62.30;;;;;;4968541;28;20662;-66
2023/06/09 13:49:56;;;;;;;4.73;1.70;;;13.70;62.60;;;;;;4973350;28;20567;-66
2023/06/09 13:52:23;;;;;;;4.67;1.70;;;13.70;62.60;;;;;;4973486;28;20692;-66
2023/06/09 13:54:51;;;;;;;8.53;2.20;;;13.70;62.90;;;;;;4972909;28;20216;-66
2023/06/09 13:57:18;;;;;;;6.90;2.00;;;13.70;62.60;;;;;;4969880;28;20182;-66
2023/06/09 13:59:45;;;;;;;4.97;1.80;;;13.70;62.50;;;;;;4973188;28;20193;-70
2023/06/09 14:02:13;;;;;;;5.63;1.60;;;13.70;62.60;;;;;;4970001;28;20552;-71
2023/06/09 14:04:40;;;;;;;6.07;2.07;;;13.50;63.20;;;;;;4973453;28;20190;-71
2023/06/09 14:07:07;;;;;;;4.47;2.00;;;13.40;63.80;;;;;;4973088;28;20193;-71
2023/06/09 14:09:34;;;;;;;5.20;1.60;;;13.40;64.10;;;;;;4973761;28;20209;-70
2023/06/09 14:12:02;;;;;;;6.27;1.97;;;13.30;64.20;;;;;;4973693;28;20264;-68
2023/06/09 14:14:29;;;;;;;8.27;2.20;;;13.30;64.20;;;;;;4973536;28;20185;-69
2023/06/09 14:16:57;;;;;;;4.67;1.93;;;13.30;64.30;;;;;;4973614;28;20183;-67
2023/06/09 14:19:25;;;;;;;9.00;2.07;;;13.30;64.10;;;;;;4972036;28;20194;-71
2023/06/09 14:21:52;;;;;;;4.67;1.70;;;13.20;64.40;;;;;;4974450;28;20222;-71
2023/06/09 14:24:19;;;;;;;3.87;1.53;;;13.20;64.60;;;;;;4969065;28;20182;-70
2023/06/09 14:26:48;;;;;;;6.83;2.33;;;13.10;65.10;;;;;;4970523;28;20306;-70
2023/06/09 14:29:15;;;;;;;3.57;1.73;;;13.00;65.70;;;;;;4973180;28;20220;-68
2023/06/09 14:31:42;;;;;;;3.30;1.70;;;13.00;65.90;;;;;;4968350;28;20185;-66
2023/06/09 14:34:10;;;;;;;8.57;2.33;;;13.00;65.90;;;;;;4971190;28;20217;-67
2023/06/09 14:36:37;;;;;;;7.80;2.10;;;12.90;65.90;;;;;;4974100;28;20186;-68
2023/06/09 14:39:04;;;;;;;5.73;1.83;;;12.90;66.40;;;;;;4967999;28;20274;-70
2023/06/09 14:41:32;;;;;;;4.90;1.93;;;12.90;66.50;;;;;;4973402;28;20241;-67
2023/06/09 14:43:59;;;;;;;5.67;2.17;;;12.80;67.00;;;;;;4963738;28;20282;-69
2023/06/09 14:46:26;;;;;;;5.43;2.00;;;12.70;67.00;;;;;;4972821;28;20222;-68
2023/06/09 14:48:54;;;;;;;10.77;1.70;;;12.70;67.40;;;;;;4970121;28;20229;-70
2023/06/09 14:51:21;;;;;;;7.47;2.07;;;12.70;67.60;;;;;;4971915;28;20246;-71
2023/06/09 14:53:49;;;;;;;9.43;2.30;;;12.70;67.60;;;;;;4971603;28;20362;-71
2023/06/09 14:56:16;;;;;;;6.97;2.20;;;12.70;68.00;;;;;;4972551;28;20194;-70
2023/06/09 14:58:44;;;;;;;5.53;2.10;;;12.60;68.20;;;;;;4972815;28;20265;-74
2023/06/09 15:01:11;;;;;;;5.70;2.13;;;12.50;68.10;;;;;;4968478;28;20199;-71
2023/06/09 15:03:38;;;;;;;6.87;2.40;;;12.40;68.90;;;;;;4973002;28;20199;-72
2023/06/09 15:06:06;;;;;;;5.27;1.80;;;12.40;68.90;;;;;;4972592;28;20201;-71
2023/06/09 15:08:33;;;;;;;8.90;3.30;;;12.30;69.70;;;;;;4965729;28;20191;-70
2023/06/09 15:11:02;;;;;;;5.80;1.70;;;12.20;69.70;;;;;;4966900;28;20592;-70
2023/06/09 15:13:29;;;;;;;9.07;2.43;;;12.20;69.90;;;;;;4972825;28;20214;-70
2023/06/09 15:15:57;;;;;;;8.60;2.00;;;12.20;70.10;;;;;;4971941;28;20237;-70
2023/06/09 15:18:24;;;;;;;4.37;1.73;;;12.20;70.10;;;;;;4971541;28;20247;-69
2023/06/09 15:20:52;;;;;;;5.40;1.90;;;12.20;70.50;;;;;;4969926;28;20258;-71
2023/06/09 15:23:20;;;;;;;6.20;1.70;;;12.20;70.50;;;;;;4971465;28;20696;-70
2023/06/09 15:25:47;;;;;;;5.03;1.90;;;12.20;70.60;;;;;;4968686;28;20186;-70
2023/06/09 15:28:16;;;;;;;8.53;2.20;;;12.20;70.20;;;;;;4971408;28;20194;-69
2023/06/09 15:30:46;;;;;;;4.83;1.80;;;12.20;70.40;;;;;;4966184;28;20258;-71
2023/06/09 15:33:16;;;;;;;5.90;1.93;;;12.20;70.40;;;;;;4967073;28;20179;-69
2023/06/09 15:35:47;;;;;;;10.40;2.57;;;12.10;70.90;;;;;;4972059;28;20194;-71
2023/06/09 15:38:16;;;;;;;10.10;2.40;;;12.10;71.00;;;;;;4966757;28;20182;-71
2023/06/09 15:40:47;;;;;;;12.97;2.67;;;12.00;71.30;;;;;;4967334;28;20653;-70
2023/06/09 15:43:15;;;;;;;9.90;2.40;;;12.00;71.40;;;;;;4970712;28;20699;-71
2023/06/09 15:45:53;;;;;;;5.87;2.73;;;12.00;71.30;;;;;;4968549;28;20179;-71
2023/06/09 15:48:21;;;;;;;8.87;2.87;;;12.00;71.80;;;;;;4970110;28;20182;-69
2023/06/09 15:50:49;;;;;;;7.00;2.40;;;11.90;71.90;;;;;;4963627;28;20223;-71
2023/06/09 15:53:19;;;;;;;6.20;2.60;;;11.90;72.00;;;;;;4964935;28;20327;-69
2023/06/09 15:55:47;;;;;;;4.70;2.40;;;11.90;71.80;;;;;;4969259;28;20190;-70
2023/06/09 15:58:15;;;;;;;6.30;2.37;;;11.90;72.00;;;;;;4970202;28;20183;-70
2023/06/09 16:00:44;;;;;;;6.80;2.40;;;11.80;71.70;;;;;;4967113;28;21112;-69
2023/06/09 16:03:12;;;;;;;9.37;2.63;;;11.70;71.60;;;;;;4971578;28;20237;-69
2023/06/09 16:05:41;;;;;;;6.40;2.20;;;11.70;72.20;;;;;;4973056;28;20214;-70
2023/06/09 16:08:11;;;;;;;9.33;2.90;;;11.60;72.50;;;;;;4969780;28;20206;-69
2023/06/09 16:10:41;;;;;;;10.03;2.50;;;11.50;72.80;;;;;;4972021;28;20578;-68
2023/06/09 16:13:08;;;;;;;8.40;2.77;;;11.60;72.50;;;;;;4973599;28;20197;-67
2023/06/09 16:15:38;;;;;;;6.73;2.10;;;11.70;71.90;;;;;;4975065;28;20186;-70
2023/06/09 16:18:10;;;;;;;9.97;2.57;;;11.80;70.40;;;;;;4971652;28;20188;-68
2023/06/09 16:20:38;;;;;;;12.00;2.43;;;11.90;69.70;;;;;;4973839;28;20668;-68
2023/06/09 16:23:07;;;;;;;6.53;2.33;;;12.10;68.60;;;;;;4974929;28;20182;-68
2023/06/09 16:25:34;;;;;;;6.30;2.37;;;12.20;68.20;;;;;;4975265;28;20241;-67
2023/06/09 16:28:03;;;;;;;11.77;2.60;;;12.30;67.80;;;;;;4974857;28;20756;-69
2023/06/09 16:30:30;;;;;;;8.20;1.93;;;12.30;67.70;;;;;;4972054;28;20222;-70
2023/06/09 16:32:59;;;;;;;7.80;2.20;;;12.30;67.50;;;;;;4975537;28;20233;-69
2023/06/09 16:35:26;;;;;;;5.50;2.23;;;12.20;67.50;;;;;;4974230;28;20212;-69
2023/06/09 16:37:53;;;;;;;6.57;2.37;;;12.30;67.30;;;;;;4975992;28;20574;-69
2023/06/09 16:40:24;;;;;;;10.03;2.43;;;12.30;67.50;;;;;;4975917;28;20214;-68
2023/06/09 16:42:51;;;;;;;7.90;2.50;;;12.30;67.30;;;;;;4975532;28;20540;-68
2023/06/09 16:45:19;;;;;;;8.00;2.37;;;12.30;67.40;;;;;;4975351;28;20243;-68
2023/06/09 16:47:46;;;;;;;6.73;2.20;;;12.30;67.30;;;;;;4976064;28;20179;-70
2023/06/09 16:50:13;;;;;;;10.07;2.17;;;12.20;67.40;;;;;;4972827;28;20378;-68
2023/06/09 16:52:41;;;;;;;9.33;2.43;;;12.20;67.40;;;;;;4976859;28;20699;-69
2023/06/09 16:55:09;;;;;;;12.40;2.50;;;12.30;67.10;;;;;;4975669;28;20545;-69
2023/06/09 16:57:36;;;;;;;6.77;2.50;;;12.20;67.00;;;;;;4975517;28;20175;-69
2023/06/09 17:00:05;;;;;;;10.30;2.07;;;12.20;66.90;;;;;;4974556;28;20186;-70
2023/06/09 17:02:33;;;;;;;9.47;2.13;;;12.20;67.30;;;;;;4974644;28;20186;-69
2023/06/09 17:05:00;;;;;;;6.33;2.57;;;12.10;67.50;;;;;;4975278;28;20225;-67
2023/06/09 17:07:31;;;;;;;10.17;3.00;;;12.00;67.70;;;;;;4971489;28;20183;-67
2023/06/09 17:09:59;;;;;;;7.67;2.37;;;12.00;68.30;;;;;;4976684;28;20226;-67
2023/06/09 17:12:26;;;;;;;7.67;2.30;;;12.00;68.60;;;;;;4969810;28;20178;-72
2023/06/09 17:14:53;;;;;;;9.63;2.80;;;11.90;68.40;;;;;;4972584;28;20645;-71
2023/06/09 17:17:21;;;;;;;8.43;2.17;;;11.90;69.00;;;;;;4973863;28;20190;-71
2023/06/09 17:19:52;;;;;;;10.77;2.87;;;11.80;69.30;;;;;;4974807;28;20182;-71
2023/06/09 17:22:20;;;;;;;7.60;2.30;;;11.70;69.20;;;;;;4974430;28;21390;-71
2023/06/09 17:24:48;;;;;;;8.27;2.40;;;11.80;69.50;;;;;;4974834;28;20187;-68
2023/06/09 17:27:15;;;;;;;6.97;2.43;;;11.70;69.70;;;;;;4971822;28;20201;-67
2023/06/09 17:29:44;;;;;;;6.53;2.37;;;11.70;69.90;;;;;;4973121;28;20606;-71
2023/06/09 17:32:11;;;;;;;5.27;2.27;;;11.60;70.80;;;;;;4972801;28;20202;-70
2023/06/09 17:34:39;;;;;;;8.53;2.40;;;11.60;71.00;;;;;;4972966;28;20182;-71
2023/06/09 17:37:06;;;;;;;7.83;2.17;;;11.50;71.70;;;;;;4972744;28;20723;-71
2023/06/09 17:39:33;;;;;;;10.87;2.13;;;11.50;71.70;;;;;;4965353;28;20246;-71
2023/06/09 17:42:01;;;;;;;6.30;2.30;;;11.40;71.70;;;;;;4971574;28;20201;-71
2023/06/09 17:44:29;;;;;;;8.63;2.30;;;11.40;72.10;;;;;;4969054;28;20201;-70
2023/06/09 17:46:56;;;;;;;8.87;2.77;;;11.40;72.00;;;;;;4970950;28;20190;-71
2023/06/09 17:49:24;;;;;;;7.57;2.33;;;11.30;72.40;;;;;;4974233;28;20233;-71
2023/06/09 17:51:51;;;;;;;11.97;2.90;;;11.20;72.80;;;;;;4965940;28;20206;-68
2023/06/09 17:54:19;;;;;;;6.53;2.13;;;11.20;73.10;;;;;;4970723;28;20206;-71
2023/06/09 17:56:46;;;;;;;7.13;2.50;;;11.20;73.50;;;;;;4972300;28;20569;-71
2023/06/09 17:59:13;;;;;;;10.17;2.63;;;11.10;73.30;;;;;;4973928;28;20186;-71
2023/06/09 18:01:41;;;;;;;8.00;2.37;;;11.00;73.20;;;;;;4967418;28;20224;-72
2023/06/09 18:04:08;;;;;;;6.93;2.40;;;11.00;73.40;;;;;;4970692;28;20179;-71
2023/06/09 18:06:36;;;;;;;7.93;2.03;;;11.00;74.00;;;;;;4973140;28;20272;-71
2023/06/09 18:09:07;;;;;;;11.97;2.73;;;11.00;74.30;;;;;;4976478;28;20190;-69
2023/06/09 18:11:34;;;;;;;8.63;2.40;;;10.90;74.20;;;;;;4973546;28;20178;-70
2023/06/09 18:14:01;;;;;;;10.23;2.47;;;10.80;74.20;;;;;;4971936;28;20285;-71
2023/06/09 18:16:29;;;;;;;8.93;2.57;;;10.80;74.50;;;;;;4971951;28;20621;-69
2023/06/09 18:18:56;;;;;;;8.43;2.37;;;10.70;74.90;;;;;;4969494;28;20194;-70
2023/06/09 18:21:23;;;;;;;9.40;2.67;;;10.70;75.30;;;;;;4971577;28;20194;-71
2023/06/09 18:23:51;;;;;;;9.03;2.50;;;10.70;75.00;;;;;;4967323;28;20182;-71
2023/06/09 18:26:18;;;;;;;8.90;2.37;;;10.60;75.40;;;;;;4967828;28;20823;-71
2023/06/09 18:28:45;;;;;;;7.90;2.33;;;10.60;75.40;;;;;;4973180;28;20183;-71
2023/06/09 18:31:13;;;;;;;5.67;2.17;;;10.60;75.70;;;;;;4972843;28;20226;-71
2023/06/09 18:33:40;;;;;;;8.50;2.40;;;10.50;75.80;;;;;;4972926;28;20179;-70
2023/06/09 18:36:09;;;;;;;9.33;2.37;;;10.50;76.00;;;;;;4968137;28;20202;-70
2023/06/09 18:38:36;;;;;;;9.03;2.83;;;10.40;76.10;;;;;;4969445;28;20187;-69
2023/06/09 18:41:04;;;;;;;8.30;2.50;;;10.30;75.90;;;;;;4970493;28;20193;-70
2023/06/09 18:43:31;;;;;;;8.57;2.50;;;10.30;75.90;;;;;;4972572;28;20234;-67
2023/06/09 18:45:59;;;;;;;9.53;2.60;;;10.30;76.60;;;;;;4954411;28;20204;-67
2023/06/09 18:48:26;;;;;;;6.47;2.13;;;10.20;76.60;;;;;;4969263;28;20182;-71
2023/06/09 18:50:53;;;;;;;10.60;2.60;;;10.20;76.90;;;;;;4968460;28;20211;-71
2023/06/09 18:53:20;;;;;;;13.37;2.80;;;10.20;77.00;;;;;;4972272;28;20242;-71
2023/06/09 18:55:48;;;;;;;8.20;2.40;;;10.20;77.10;;;;;;4971746;28;20302;-72
2023/06/09 18:58:15;;;;;;;8.40;2.53;;;10.20;77.50;;;;;;4972448;28;20683;-71
2023/06/09 19:00:42;;;;;;;8.40;2.80;;;10.10;77.60;;;;;;4972199;28;20194;-72
2023/06/09 19:03:10;;;;;;;6.77;2.40;;;10.10;77.20;;;;;;4971562;28;20197;-69
2023/06/09 19:05:37;;;;;;;8.63;2.80;;;10.00;77.70;;;;;;4971505;28;20553;-67
2023/06/09 19:08:05;;;;;;;7.47;2.60;;;10.00;78.00;;;;;;4969031;28;20178;-67
2023/06/09 19:10:33;;;;;;;7.23;2.10;;;10.10;78.10;;;;;;4972378;28;20229;-70
2023/06/09 19:13:01;;;;;;;12.63;2.63;;;10.00;77.80;;;;;;4971961;28;20658;-69
2023/06/09 19:15:28;;;;;;;10.17;3.00;;;10.00;78.30;;;;;;4968502;28;20186;-67
2023/06/09 19:18:00;;;;;;;7.80;2.60;;;10.00;78.30;;;;;;4973314;28;20542;-69
2023/06/09 19:20:28;;;;;;;13.83;3.07;;;10.00;78.50;;;;;;4972412;28;20209;-69
2023/06/09 19:22:55;;;;;;;10.70;3.20;;;9.90;78.60;;;;;;4973190;28;20707;-70
2023/06/09 19:25:23;;;;;;;11.03;3.17;;;9.90;78.80;;;;;;4970404;28;20328;-70
2023/06/09 19:27:50;;;;;;;10.77;2.87;;;9.90;78.50;;;;;;4972227;28;20186;-70
2023/06/09 19:30:17;;;;;;;8.03;2.80;;;9.80;78.50;;;;;;4972786;28;20581;-71
2023/06/09 19:32:45;;;;;;;10.37;3.17;;;9.80;78.80;;;;;;4972936;28;20190;-70
2023/06/09 19:35:12;;;;;;;8.93;2.80;;;9.80;78.90;;;;;;4973363;28;20194;-70
2023/06/09 19:37:39;;;;;;;9.40;2.90;;;9.70;79.20;;;;;;4972764;28;20194;-72
2023/06/09 19:40:07;;;;;;;13.83;3.00;;;9.70;79.30;;;;;;4969353;28;20184;-68
2023/06/09 19:42:35;;;;;;;8.33;3.10;;;9.60;79.30;;;;;;4973782;28;20190;-70
2023/06/09 19:45:02;;;;;;;9.77;2.60;;;9.70;79.80;;;;;;4973079;28;20192;-70
2023/06/09 19:47:29;;;;;;;8.33;2.63;;;9.60;79.80;;;;;;4967340;28;20202;-71
2023/06/09 19:49:57;;;;;;;7.13;2.57;;;9.60;79.60;;;;;;4968857;28;20308;-68